sensor_id;sensor_type;location;lat;lon;timestamp;temperature;humidity
24802;DHT22;12898;50.520;12.152;2022-11-15T00:00:24;6.60;99.90
24802;DHT22;12898;50.520;12.152;2022-11-15T00:02:52;6.60;99.90
24802;DHT22;12898;50.520;12.152;2022-11-15T00:05:18;6.60;99.90
24802;DHT22;12898;50.520;12.152;2022-11-15T00:07:44;6.60;99.90
24802;DHT22;12898;50.520;12.152;2022-11-15T00:10:10;6.60;99.90
24802;DHT22;12898;50.520;12.152;2022-11-15T00:12:36;6.50;99.90
24802;DHT22;12898;50.520;12.152;2022-11-15T00:15:02;6.50;99.90
24802;DHT22;12898;50.520;12.152;2022-11-15T00:17:28;6.50;99.90
24802;DHT22;12898;50.520;12.152;2022-11-15T00:19:53;6.50;99.90
24802;DHT22;12898;50.520;12.152;2022-11-15T00:22:19;6.50;99.90
24802;DHT22;12898;50.520;12.152;2022-11-15T00:24:45;6.50;99.90
24802;DHT22;12898;50.520;12.152;2022-11-15T00:27:10;6.50;99.90
24802;DHT22;12898;50.520;12.152;2022-11-15T00:29:36;6.50;99.90
24802;DHT22;12898;50.520;12.152;2022-11-15T00:32:04;6.50;99.90
24802;DHT22;12898;50.520;12.152;2022-11-15T00:34:30;6.50;99.90
24802;DHT22;12898;50.520;12.152;2022-11-15T00:36:56;6.40;99.90
24802;DHT22;12898;50.520;12.152;2022-11-15T00:39:21;6.40;99.90
24802;DHT22;12898;50.520;12.152;2022-11-15T00:41:47;6.40;99.90
24802;DHT22;12898;50.520;12.152;2022-11-15T00:44:13;6.40;99.90
24802;DHT22;12898;50.520;12.152;2022-11-15T00:46:38;6.40;99.90
24802;DHT22;12898;50.520;12.152;2022-11-15T00:49:04;6.30;99.90
24802;DHT22;12898;50.520;12.152;2022-11-15T00:51:30;6.30;99.90
24802;DHT22;12898;50.520;12.152;2022-11-15T00:53:55;6.30;99.90
24802;DHT22;12898;50.520;12.152;2022-11-15T00:56:21;6.30;99.90
24802;DHT22;12898;50.520;12.152;2022-11-15T00:58:47;6.20;99.90
24802;DHT22;12898;50.520;12.152;2022-11-15T01:01:13;6.20;99.90
24802;DHT22;12898;50.520;12.152;2022-11-15T01:03:40;6.30;99.90
24802;DHT22;12898;50.520;12.152;2022-11-15T01:06:09;6.30;99.90
24802;DHT22;12898;50.520;12.152;2022-11-15T01:08:35;6.30;99.90
24802;DHT22;12898;50.520;12.152;2022-11-15T01:11:09;6.30;99.90
24802;DHT22;12898;50.520;12.152;2022-11-15T01:13:37;6.30;99.90
24802;DHT22;12898;50.520;12.152;2022-11-15T01:16:09;6.30;99.90
24802;DHT22;12898;50.520;12.152;2022-11-15T01:18:36;6.30;99.90
24802;DHT22;12898;50.520;12.152;2022-11-15T01:21:07;6.20;99.90
24802;DHT22;12898;50.520;12.152;2022-11-15T01:23:34;6.30;99.90
24802;DHT22;12898;50.520;12.152;2022-11-15T01:26:02;6.30;99.90
24802;DHT22;12898;50.520;12.152;2022-11-15T01:28:32;6.30;99.90
24802;DHT22;12898;50.520;12.152;2022-11-15T01:31:04;6.30;99.90
24802;DHT22;12898;50.520;12.152;2022-11-15T01:33:34;6.30;99.90
24802;DHT22;12898;50.520;12.152;2022-11-15T01:36:11;6.30;99.90
24802;DHT22;12898;50.520;12.152;2022-11-15T01:38:44;6.30;99.90
24802;DHT22;12898;50.520;12.152;2022-11-15T01:41:23;6.30;99.90
24802;DHT22;12898;50.520;12.152;2022-11-15T01:43:53;6.20;99.90
24802;DHT22;12898;50.520;12.152;2022-11-15T01:46:31;6.30;99.90
24802;DHT22;12898;50.520;12.152;2022-11-15T01:49:03;6.30;99.90
24802;DHT22;12898;50.520;12.152;2022-11-15T01:51:32;6.30;99.90
24802;DHT22;12898;50.520;12.152;2022-11-15T01:54:08;6.30;99.90
24802;DHT22;12898;50.520;12.152;2022-11-15T01:56:43;6.30;99.90
24802;DHT22;12898;50.520;12.152;2022-11-15T01:59:11;6.30;99.90
24802;DHT22;12898;50.520;12.152;2022-11-15T02:01:37;6.20;99.90
24802;DHT22;12898;50.520;12.152;2022-11-15T02:04:20;6.30;99.90
24802;DHT22;12898;50.520;12.152;2022-11-15T02:06:48;6.30;99.90
24802;DHT22;12898;50.520;12.152;2022-11-15T02:09:15;6.20;99.90
24802;DHT22;12898;50.520;12.152;2022-11-15T02:11:42;6.20;99.90
24802;DHT22;12898;50.520;12.152;2022-11-15T02:14:09;6.20;99.90
24802;DHT22;12898;50.520;12.152;2022-11-15T02:25:03;6.10;99.90
24802;DHT22;12898;50.520;12.152;2022-11-15T02:36:23;6.00;99.90
24802;DHT22;12898;50.520;12.152;2022-11-15T02:39:29;6.00;99.90
24802;DHT22;12898;50.520;12.152;2022-11-15T02:42:02;6.00;99.90
24802;DHT22;12898;50.520;12.152;2022-11-15T02:44:51;6.00;99.90
24802;DHT22;12898;50.520;12.152;2022-11-15T02:47:19;5.90;99.90
24802;DHT22;12898;50.520;12.152;2022-11-15T02:49:48;5.80;99.90
24802;DHT22;12898;50.520;12.152;2022-11-15T02:52:23;5.80;99.90
24802;DHT22;12898;50.520;12.152;2022-11-15T02:54:58;5.70;99.90
24802;DHT22;12898;50.520;12.152;2022-11-15T03:00:35;5.60;99.90
24802;DHT22;12898;50.520;12.152;2022-11-15T03:06:19;5.40;99.90
24802;DHT22;12898;50.520;12.152;2022-11-15T03:18:29;5.00;99.90
24802;DHT22;12898;50.520;12.152;2022-11-15T03:21:01;5.00;99.90
24802;DHT22;12898;50.520;12.152;2022-11-15T03:23:30;5.00;99.90
24802;DHT22;12898;50.520;12.152;2022-11-15T03:25:57;5.00;99.90
24802;DHT22;12898;50.520;12.152;2022-11-15T03:28:28;5.00;99.90
24802;DHT22;12898;50.520;12.152;2022-11-15T03:31:19;4.90;99.90
24802;DHT22;12898;50.520;12.152;2022-11-15T03:34:08;4.80;99.90
24802;DHT22;12898;50.520;12.152;2022-11-15T03:36:37;4.80;99.90
24802;DHT22;12898;50.520;12.152;2022-11-15T03:39:06;4.70;99.90
24802;DHT22;12898;50.520;12.152;2022-11-15T03:41:48;4.70;99.90
24802;DHT22;12898;50.520;12.152;2022-11-15T03:47:20;4.50;99.90
24802;DHT22;12898;50.520;12.152;2022-11-15T03:50:07;4.50;99.90
24802;DHT22;12898;50.520;12.152;2022-11-15T03:52:36;4.50;99.90
24802;DHT22;12898;50.520;12.152;2022-11-15T03:55:05;4.40;99.90
24802;DHT22;12898;50.520;12.152;2022-11-15T03:57:31;4.30;99.90
24802;DHT22;12898;50.520;12.152;2022-11-15T03:59:57;4.20;99.90
24802;DHT22;12898;50.520;12.152;2022-11-15T04:02:23;4.10;99.90
24802;DHT22;12898;50.520;12.152;2022-11-15T04:04:51;4.00;99.90
24802;DHT22;12898;50.520;12.152;2022-11-15T04:07:17;3.90;99.90
24802;DHT22;12898;50.520;12.152;2022-11-15T04:09:43;3.90;99.90
24802;DHT22;12898;50.520;12.152;2022-11-15T04:12:28;3.80;99.90
24802;DHT22;12898;50.520;12.152;2022-11-15T04:15:11;3.70;99.90
24802;DHT22;12898;50.520;12.152;2022-11-15T04:17:46;3.70;99.90
24802;DHT22;12898;50.520;12.152;2022-11-15T04:20:20;3.80;99.90
24802;DHT22;12898;50.520;12.152;2022-11-15T04:23:15;3.80;99.90
24802;DHT22;12898;50.520;12.152;2022-11-15T04:26:06;3.80;99.90
24802;DHT22;12898;50.520;12.152;2022-11-15T04:28:34;3.80;99.90
24802;DHT22;12898;50.520;12.152;2022-11-15T04:31:00;3.90;99.90
24802;DHT22;12898;50.520;12.152;2022-11-15T04:33:26;4.00;99.90
24802;DHT22;12898;50.520;12.152;2022-11-15T04:35:52;4.10;99.90
24802;DHT22;12898;50.520;12.152;2022-11-15T04:38:36;4.10;99.90
24802;DHT22;12898;50.520;12.152;2022-11-15T04:41:02;4.10;99.90
24802;DHT22;12898;50.520;12.152;2022-11-15T04:43:28;4.00;99.90
24802;DHT22;12898;50.520;12.152;2022-11-15T04:45:56;4.00;99.90
24802;DHT22;12898;50.520;12.152;2022-11-15T04:48:25;4.00;99.90
24802;DHT22;12898;50.520;12.152;2022-11-15T04:50:50;3.90;99.90
24802;DHT22;12898;50.520;12.152;2022-11-15T04:53:16;3.80;99.90
24802;DHT22;12898;50.520;12.152;2022-11-15T04:55:47;3.80;99.90
24802;DHT22;12898;50.520;12.152;2022-11-15T04:58:13;3.80;99.90
24802;DHT22;12898;50.520;12.152;2022-11-15T05:00:38;3.70;99.90
24802;DHT22;12898;50.520;12.152;2022-11-15T05:03:05;3.80;99.90
24802;DHT22;12898;50.520;12.152;2022-11-15T05:05:49;3.80;99.90
24802;DHT22;12898;50.520;12.152;2022-11-15T05:08:14;3.80;99.90
24802;DHT22;12898;50.520;12.152;2022-11-15T05:10:40;3.90;99.90
24802;DHT22;12898;50.520;12.152;2022-11-15T05:13:06;3.90;99.90
24802;DHT22;12898;50.520;12.152;2022-11-15T05:15:31;4.00;99.90
24802;DHT22;12898;50.520;12.152;2022-11-15T05:17:58;4.10;99.90
24802;DHT22;12898;50.520;12.152;2022-11-15T05:20:25;4.20;99.90
24802;DHT22;12898;50.520;12.152;2022-11-15T05:22:52;4.30;99.90
24802;DHT22;12898;50.520;12.152;2022-11-15T05:25:22;4.40;99.90
24802;DHT22;12898;50.520;12.152;2022-11-15T05:27:48;4.50;99.90
24802;DHT22;12898;50.520;12.152;2022-11-15T05:30:15;4.60;99.90
24802;DHT22;12898;50.520;12.152;2022-11-15T05:32:41;4.60;99.90
24802;DHT22;12898;50.520;12.152;2022-11-15T05:35:09;4.70;99.90
24802;DHT22;12898;50.520;12.152;2022-11-15T05:37:39;4.80;99.90
24802;DHT22;12898;50.520;12.152;2022-11-15T05:40:06;4.80;99.90
24802;DHT22;12898;50.520;12.152;2022-11-15T05:42:33;4.90;99.90
24802;DHT22;12898;50.520;12.152;2022-11-15T05:45:00;4.90;99.90
24802;DHT22;12898;50.520;12.152;2022-11-15T05:47:29;4.90;99.90
24802;DHT22;12898;50.520;12.152;2022-11-15T05:49:58;4.90;99.90
24802;DHT22;12898;50.520;12.152;2022-11-15T05:52:29;4.90;99.90
24802;DHT22;12898;50.520;12.152;2022-11-15T05:54:56;4.90;99.90
24802;DHT22;12898;50.520;12.152;2022-11-15T05:57:22;5.00;99.90
24802;DHT22;12898;50.520;12.152;2022-11-15T05:59:49;5.10;99.90
24802;DHT22;12898;50.520;12.152;2022-11-15T06:02:15;5.10;99.90
24802;DHT22;12898;50.520;12.152;2022-11-15T06:04:41;5.20;99.90
24802;DHT22;12898;50.520;12.152;2022-11-15T06:07:06;5.20;99.90
24802;DHT22;12898;50.520;12.152;2022-11-15T06:09:32;5.30;99.90
24802;DHT22;12898;50.520;12.152;2022-11-15T06:11:58;5.30;99.90
24802;DHT22;12898;50.520;12.152;2022-11-15T06:14:24;5.30;99.90
24802;DHT22;12898;50.520;12.152;2022-11-15T06:16:51;5.40;99.90
24802;DHT22;12898;50.520;12.152;2022-11-15T06:19:16;5.40;99.90
24802;DHT22;12898;50.520;12.152;2022-11-15T06:21:42;5.40;99.90
24802;DHT22;12898;50.520;12.152;2022-11-15T06:24:08;5.50;99.90
24802;DHT22;12898;50.520;12.152;2022-11-15T06:26:34;5.50;99.90
24802;DHT22;12898;50.520;12.152;2022-11-15T06:29:05;5.50;99.90
24802;DHT22;12898;50.520;12.152;2022-11-15T06:31:31;5.60;99.90
24802;DHT22;12898;50.520;12.152;2022-11-15T06:33:57;5.60;99.90
24802;DHT22;12898;50.520;12.152;2022-11-15T06:36:22;5.50;99.90
24802;DHT22;12898;50.520;12.152;2022-11-15T06:38:48;5.50;99.90
24802;DHT22;12898;50.520;12.152;2022-11-15T06:41:14;5.60;99.90
24802;DHT22;12898;50.520;12.152;2022-11-15T06:43:41;5.60;99.90
24802;DHT22;12898;50.520;12.152;2022-11-15T06:46:07;5.60;99.90
24802;DHT22;12898;50.520;12.152;2022-11-15T06:48:34;5.60;99.90
24802;DHT22;12898;50.520;12.152;2022-11-15T06:51:02;5.60;99.90
24802;DHT22;12898;50.520;12.152;2022-11-15T06:53:30;5.60;99.90
24802;DHT22;12898;50.520;12.152;2022-11-15T06:56:01;5.60;99.90
24802;DHT22;12898;50.520;12.152;2022-11-15T06:58:27;5.60;99.90
24802;DHT22;12898;50.520;12.152;2022-11-15T07:00:53;5.70;99.90
24802;DHT22;12898;50.520;12.152;2022-11-15T07:03:19;5.80;99.90
24802;DHT22;12898;50.520;12.152;2022-11-15T07:05:52;5.80;99.90
24802;DHT22;12898;50.520;12.152;2022-11-15T07:08:20;5.90;99.90
24802;DHT22;12898;50.520;12.152;2022-11-15T07:10:46;5.90;99.90
24802;DHT22;12898;50.520;12.152;2022-11-15T07:13:12;6.00;99.90
24802;DHT22;12898;50.520;12.152;2022-11-15T07:15:37;6.10;99.90
24802;DHT22;12898;50.520;12.152;2022-11-15T07:18:03;6.20;99.90
24802;DHT22;12898;50.520;12.152;2022-11-15T07:20:29;6.30;99.90
24802;DHT22;12898;50.520;12.152;2022-11-15T07:23:05;6.40;99.90
24802;DHT22;12898;50.520;12.152;2022-11-15T07:25:31;6.40;99.90
24802;DHT22;12898;50.520;12.152;2022-11-15T07:27:57;6.50;99.90
24802;DHT22;12898;50.520;12.152;2022-11-15T07:30:27;6.60;99.90
24802;DHT22;12898;50.520;12.152;2022-11-15T07:32:54;6.80;99.90
24802;DHT22;12898;50.520;12.152;2022-11-15T07:35:25;6.80;99.90
24802;DHT22;12898;50.520;12.152;2022-11-15T07:38:00;7.00;99.90
24802;DHT22;12898;50.520;12.152;2022-11-15T07:40:28;7.10;99.90
24802;DHT22;12898;50.520;12.152;2022-11-15T07:43:03;7.20;99.90
24802;DHT22;12898;50.520;12.152;2022-11-15T07:45:32;7.30;99.90
24802;DHT22;12898;50.520;12.152;2022-11-15T07:48:00;7.40;99.90
24802;DHT22;12898;50.520;12.152;2022-11-15T07:50:27;7.50;99.90
24802;DHT22;12898;50.520;12.152;2022-11-15T07:52:56;7.60;99.90
24802;DHT22;12898;50.520;12.152;2022-11-15T07:55:23;7.70;99.90
24802;DHT22;12898;50.520;12.152;2022-11-15T07:57:50;7.90;99.90
24802;DHT22;12898;50.520;12.152;2022-11-15T08:00:17;7.90;99.90
24802;DHT22;12898;50.520;12.152;2022-11-15T08:02:45;8.00;99.90
24802;DHT22;12898;50.520;12.152;2022-11-15T08:05:11;8.10;99.90
24802;DHT22;12898;50.520;12.152;2022-11-15T08:07:39;8.30;99.90
24802;DHT22;12898;50.520;12.152;2022-11-15T08:10:07;8.30;99.90
24802;DHT22;12898;50.520;12.152;2022-11-15T08:12:33;8.50;99.90
24802;DHT22;12898;50.520;12.152;2022-11-15T08:14:59;8.60;99.90
24802;DHT22;12898;50.520;12.152;2022-11-15T08:17:25;8.70;99.90
24802;DHT22;12898;50.520;12.152;2022-11-15T08:19:58;8.90;99.90
24802;DHT22;12898;50.520;12.152;2022-11-15T08:22:24;9.00;99.90
24802;DHT22;12898;50.520;12.152;2022-11-15T08:24:49;9.20;99.90
24802;DHT22;12898;50.520;12.152;2022-11-15T08:27:15;9.20;99.90
24802;DHT22;12898;50.520;12.152;2022-11-15T08:29:44;9.30;99.90
24802;DHT22;12898;50.520;12.152;2022-11-15T08:32:11;9.40;99.90
24802;DHT22;12898;50.520;12.152;2022-11-15T08:34:37;9.50;99.90
24802;DHT22;12898;50.520;12.152;2022-11-15T08:37:03;9.60;99.90
24802;DHT22;12898;50.520;12.152;2022-11-15T08:39:29;9.70;99.90
24802;DHT22;12898;50.520;12.152;2022-11-15T08:41:57;9.80;99.90
24802;DHT22;12898;50.520;12.152;2022-11-15T08:44:26;9.90;99.90
24802;DHT22;12898;50.520;12.152;2022-11-15T08:46:54;10.00;99.90
24802;DHT22;12898;50.520;12.152;2022-11-15T08:49:20;10.10;99.90
24802;DHT22;12898;50.520;12.152;2022-11-15T08:51:46;10.30;99.90
24802;DHT22;12898;50.520;12.152;2022-11-15T08:54:11;10.40;99.90
24802;DHT22;12898;50.520;12.152;2022-11-15T08:56:39;10.50;99.90
24802;DHT22;12898;50.520;12.152;2022-11-15T08:59:05;10.60;99.90
24802;DHT22;12898;50.520;12.152;2022-11-15T09:01:30;10.70;99.90
24802;DHT22;12898;50.520;12.152;2022-11-15T09:03:57;10.80;99.90
24802;DHT22;12898;50.520;12.152;2022-11-15T09:06:23;10.90;99.90
24802;DHT22;12898;50.520;12.152;2022-11-15T09:08:49;10.90;99.90
24802;DHT22;12898;50.520;12.152;2022-11-15T09:11:14;11.00;99.90
24802;DHT22;12898;50.520;12.152;2022-11-15T09:13:43;11.20;99.90
24802;DHT22;12898;50.520;12.152;2022-11-15T09:16:08;11.30;99.90
24802;DHT22;12898;50.520;12.152;2022-11-15T09:18:34;11.30;99.90
24802;DHT22;12898;50.520;12.152;2022-11-15T09:21:00;11.40;99.90
24802;DHT22;12898;50.520;12.152;2022-11-15T09:23:28;11.60;99.90
24802;DHT22;12898;50.520;12.152;2022-11-15T09:25:59;11.80;99.90
24802;DHT22;12898;50.520;12.152;2022-11-15T09:28:28;12.00;99.90
24802;DHT22;12898;50.520;12.152;2022-11-15T09:30:58;12.10;99.90
24802;DHT22;12898;50.520;12.152;2022-11-15T09:33:26;12.20;99.90
24802;DHT22;12898;50.520;12.152;2022-11-15T09:35:52;12.30;99.90
24802;DHT22;12898;50.520;12.152;2022-11-15T09:38:18;12.40;99.90
24802;DHT22;12898;50.520;12.152;2022-11-15T09:40:50;12.50;99.90
24802;DHT22;12898;50.520;12.152;2022-11-15T09:46:08;12.90;99.90
24802;DHT22;12898;50.520;12.152;2022-11-15T09:51:38;13.00;99.90
24802;DHT22;12898;50.520;12.152;2022-11-15T09:56:46;13.40;99.90
24802;DHT22;12898;50.520;12.152;2022-11-15T10:04:43;13.40;99.90
24802;DHT22;12898;50.520;12.152;2022-11-15T10:08:01;13.50;99.90
24802;DHT22;12898;50.520;12.152;2022-11-15T10:10:18;13.70;99.90
24802;DHT22;12898;50.520;12.152;2022-11-15T10:12:51;14.00;99.90
24802;DHT22;12898;50.520;12.152;2022-11-15T10:15:20;14.10;99.90
24802;DHT22;12898;50.520;12.152;2022-11-15T10:18:32;14.10;99.90
24802;DHT22;12898;50.520;12.152;2022-11-15T10:21:09;14.10;99.90
24802;DHT22;12898;50.520;12.152;2022-11-15T10:23:41;14.20;99.90
24802;DHT22;12898;50.520;12.152;2022-11-15T10:26:10;14.30;99.90
24802;DHT22;12898;50.520;12.152;2022-11-15T10:28:39;14.50;99.90
24802;DHT22;12898;50.520;12.152;2022-11-15T10:31:27;14.50;96.40
24802;DHT22;12898;50.520;12.152;2022-11-15T10:34:21;14.30;96.90
24802;DHT22;12898;50.520;12.152;2022-11-15T10:36:59;14.30;97.50
24802;DHT22;12898;50.520;12.152;2022-11-15T10:39:27;14.30;96.90
24802;DHT22;12898;50.520;12.152;2022-11-15T10:41:55;14.30;96.00
24802;DHT22;12898;50.520;12.152;2022-11-15T10:44:30;14.40;96.30
24802;DHT22;12898;50.520;12.152;2022-11-15T10:49:30;14.50;97.00
24802;DHT22;12898;50.520;12.152;2022-11-15T10:54:47;14.80;94.30
24802;DHT22;12898;50.520;12.152;2022-11-15T10:57:17;14.90;94.10
24802;DHT22;12898;50.520;12.152;2022-11-15T10:59:49;15.00;94.90
24802;DHT22;12898;50.520;12.152;2022-11-15T11:05:24;15.20;93.10
24802;DHT22;12898;50.520;12.152;2022-11-15T11:08:18;15.00;91.90
24802;DHT22;12898;50.520;12.152;2022-11-15T11:11:01;15.00;93.60
24802;DHT22;12898;50.520;12.152;2022-11-15T11:13:46;15.20;93.40
24802;DHT22;12898;50.520;12.152;2022-11-15T11:37:55;15.60;90.50
24802;DHT22;12898;50.520;12.152;2022-11-15T11:40:41;15.80;90.20
24802;DHT22;12898;50.520;12.152;2022-11-15T11:43:27;16.00;88.30
24802;DHT22;12898;50.520;12.152;2022-11-15T11:48:53;16.00;85.30
24802;DHT22;12898;50.520;12.152;2022-11-15T11:51:28;16.10;88.10
24802;DHT22;12898;50.520;12.152;2022-11-15T11:54:05;16.00;83.80
24802;DHT22;12898;50.520;12.152;2022-11-15T11:56:51;15.90;84.80
24802;DHT22;12898;50.520;12.152;2022-11-15T12:02:26;15.70;85.90
24802;DHT22;12898;50.520;12.152;2022-11-15T12:05:18;15.80;87.50
24802;DHT22;12898;50.520;12.152;2022-11-15T12:07:56;15.90;88.30
24802;DHT22;12898;50.520;12.152;2022-11-15T12:10:32;16.00;85.00
24802;DHT22;12898;50.520;12.152;2022-11-15T12:13:13;15.90;86.20
24802;DHT22;12898;50.520;12.152;2022-11-15T12:15:47;16.00;85.40
24802;DHT22;12898;50.520;12.152;2022-11-15T12:18:17;16.10;85.30
24802;DHT22;12898;50.520;12.152;2022-11-15T12:20:53;16.20;86.10
24802;DHT22;12898;50.520;12.152;2022-11-15T12:23:45;16.20;84.40
24802;DHT22;12898;50.520;12.152;2022-11-15T12:26:19;16.30;85.60
24802;DHT22;12898;50.520;12.152;2022-11-15T12:28:59;16.30;84.20
24802;DHT22;12898;50.520;12.152;2022-11-15T12:31:39;16.20;82.80
24802;DHT22;12898;50.520;12.152;2022-11-15T12:36:52;16.10;85.00
24802;DHT22;12898;50.520;12.152;2022-11-15T12:39:18;16.20;83.50
24802;DHT22;12898;50.520;12.152;2022-11-15T12:52:08;16.30;81.70
24802;DHT22;12898;50.520;12.152;2022-11-15T13:17:52;16.40;79.80
24802;DHT22;12898;50.520;12.152;2022-11-15T13:23:10;16.40;81.30
24802;DHT22;12898;50.520;12.152;2022-11-15T13:25:44;16.50;83.50
24802;DHT22;12898;50.520;12.152;2022-11-15T13:31:00;16.70;80.70
24802;DHT22;12898;50.520;12.152;2022-11-15T13:33:37;16.80;79.50
24802;DHT22;12898;50.520;12.152;2022-11-15T13:39:06;16.60;79.60
24802;DHT22;12898;50.520;12.152;2022-11-15T13:41:50;16.60;81.50
24802;DHT22;12898;50.520;12.152;2022-11-15T13:44:31;16.60;82.60
24802;DHT22;12898;50.520;12.152;2022-11-15T13:47:26;16.40;80.90
24802;DHT22;12898;50.520;12.152;2022-11-15T13:49:53;16.20;83.10
24802;DHT22;12898;50.520;12.152;2022-11-15T13:52:32;16.00;83.90
24802;DHT22;12898;50.520;12.152;2022-11-15T13:55:04;16.00;85.10
24802;DHT22;12898;50.520;12.152;2022-11-15T13:57:48;15.90;85.10
24802;DHT22;12898;50.520;12.152;2022-11-15T14:03:28;15.70;85.00
24802;DHT22;12898;50.520;12.152;2022-11-15T14:06:12;15.70;85.60
24802;DHT22;12898;50.520;12.152;2022-11-15T14:08:42;15.50;86.30
24802;DHT22;12898;50.520;12.152;2022-11-15T14:11:24;15.40;87.00
24802;DHT22;12898;50.520;12.152;2022-11-15T14:19:04;15.10;90.10
24802;DHT22;12898;50.520;12.152;2022-11-15T14:21:31;15.00;89.80
24802;DHT22;12898;50.520;12.152;2022-11-15T14:24:21;14.90;90.60
24802;DHT22;12898;50.520;12.152;2022-11-15T14:26:47;14.80;90.90
24802;DHT22;12898;50.520;12.152;2022-11-15T14:29:28;14.70;91.00
24802;DHT22;12898;50.520;12.152;2022-11-15T14:32:15;14.60;91.30
24802;DHT22;12898;50.520;12.152;2022-11-15T14:34:55;14.40;92.00
24802;DHT22;12898;50.520;12.152;2022-11-15T14:39:53;13.90;93.50
24802;DHT22;12898;50.520;12.152;2022-11-15T14:42:21;13.70;94.90
24802;DHT22;12898;50.520;12.152;2022-11-15T14:44:48;13.50;95.90
24802;DHT22;12898;50.520;12.152;2022-11-15T14:47:14;13.40;97.40
24802;DHT22;12898;50.520;12.152;2022-11-15T14:49:40;13.30;97.50
24802;DHT22;12898;50.520;12.152;2022-11-15T14:52:27;13.20;98.20
24802;DHT22;12898;50.520;12.152;2022-11-15T14:54:55;13.10;98.10
24802;DHT22;12898;50.520;12.152;2022-11-15T14:57:24;13.10;98.40
24802;DHT22;12898;50.520;12.152;2022-11-15T14:59:50;13.00;98.40
24802;DHT22;12898;50.520;12.152;2022-11-15T15:02:24;12.80;98.90
24802;DHT22;12898;50.520;12.152;2022-11-15T15:04:52;12.70;99.40
24802;DHT22;12898;50.520;12.152;2022-11-15T15:07:18;12.50;99.70
24802;DHT22;12898;50.520;12.152;2022-11-15T15:09:50;12.40;99.90
24802;DHT22;12898;50.520;12.152;2022-11-15T15:12:21;12.20;99.90
24802;DHT22;12898;50.520;12.152;2022-11-15T15:14:49;12.00;99.90
24802;DHT22;12898;50.520;12.152;2022-11-15T15:17:16;11.80;99.90
24802;DHT22;12898;50.520;12.152;2022-11-15T15:19:45;11.70;99.90
24802;DHT22;12898;50.520;12.152;2022-11-15T15:22:18;11.50;99.90
24802;DHT22;12898;50.520;12.152;2022-11-15T15:24:47;11.20;99.90
24802;DHT22;12898;50.520;12.152;2022-11-15T15:27:13;11.00;99.90
24802;DHT22;12898;50.520;12.152;2022-11-15T15:29:39;10.70;99.90
24802;DHT22;12898;50.520;12.152;2022-11-15T15:32:11;10.40;99.90
24802;DHT22;12898;50.520;12.152;2022-11-15T15:34:38;10.20;99.90
24802;DHT22;12898;50.520;12.152;2022-11-15T15:37:24;9.90;99.90
24802;DHT22;12898;50.520;12.152;2022-11-15T15:39:56;9.70;99.90
24802;DHT22;12898;50.520;12.152;2022-11-15T15:42:28;9.50;99.90
24802;DHT22;12898;50.520;12.152;2022-11-15T15:44:54;9.30;99.90
24802;DHT22;12898;50.520;12.152;2022-11-15T15:47:21;9.10;99.90
24802;DHT22;12898;50.520;12.152;2022-11-15T15:49:49;9.00;99.90
24802;DHT22;12898;50.520;12.152;2022-11-15T15:52:16;8.80;99.90
24802;DHT22;12898;50.520;12.152;2022-11-15T15:54:45;8.70;99.90
24802;DHT22;12898;50.520;12.152;2022-11-15T15:57:12;8.60;99.90
24802;DHT22;12898;50.520;12.152;2022-11-15T15:59:39;8.50;99.90
24802;DHT22;12898;50.520;12.152;2022-11-15T16:02:17;8.40;99.90
24802;DHT22;12898;50.520;12.152;2022-11-15T16:04:46;8.40;99.90
24802;DHT22;12898;50.520;12.152;2022-11-15T16:07:18;8.40;99.90
24802;DHT22;12898;50.520;12.152;2022-11-15T16:09:49;8.50;99.90
24802;DHT22;12898;50.520;12.152;2022-11-15T16:12:33;8.60;99.90
24802;DHT22;12898;50.520;12.152;2022-11-15T16:15:04;8.60;99.90
24802;DHT22;12898;50.520;12.152;2022-11-15T16:17:32;8.80;99.90
24802;DHT22;12898;50.520;12.152;2022-11-15T16:20:00;8.80;99.90
24802;DHT22;12898;50.520;12.152;2022-11-15T16:22:26;8.80;99.90
24802;DHT22;12898;50.520;12.152;2022-11-15T16:24:54;8.70;99.90
24802;DHT22;12898;50.520;12.152;2022-11-15T16:27:21;8.70;99.90
24802;DHT22;12898;50.520;12.152;2022-11-15T16:29:47;8.50;99.90
24802;DHT22;12898;50.520;12.152;2022-11-15T16:32:15;8.40;99.90
24802;DHT22;12898;50.520;12.152;2022-11-15T16:34:41;8.20;99.90
24802;DHT22;12898;50.520;12.152;2022-11-15T16:37:21;8.00;99.90
24802;DHT22;12898;50.520;12.152;2022-11-15T16:39:48;7.80;99.90
24802;DHT22;12898;50.520;12.152;2022-11-15T16:42:16;7.70;99.90
24802;DHT22;12898;50.520;12.152;2022-11-15T16:44:42;7.50;99.90
24802;DHT22;12898;50.520;12.152;2022-11-15T16:47:17;7.30;99.90
24802;DHT22;12898;50.520;12.152;2022-11-15T16:49:44;7.20;99.90
24802;DHT22;12898;50.520;12.152;2022-11-15T16:52:16;7.10;99.90
24802;DHT22;12898;50.520;12.152;2022-11-15T16:54:50;7.00;99.90
24802;DHT22;12898;50.520;12.152;2022-11-15T16:57:16;7.00;99.90
24802;DHT22;12898;50.520;12.152;2022-11-15T16:59:42;6.90;99.90
24802;DHT22;12898;50.520;12.152;2022-11-15T17:02:14;6.90;99.90
24802;DHT22;12898;50.520;12.152;2022-11-15T17:04:42;6.80;99.90
24802;DHT22;12898;50.520;12.152;2022-11-15T17:07:10;6.80;99.90
24802;DHT22;12898;50.520;12.152;2022-11-15T17:09:36;6.70;99.90
24802;DHT22;12898;50.520;12.152;2022-11-15T17:12:08;6.60;99.90
24802;DHT22;12898;50.520;12.152;2022-11-15T17:14:37;6.50;99.90
24802;DHT22;12898;50.520;12.152;2022-11-15T17:17:03;6.40;99.90
24802;DHT22;12898;50.520;12.152;2022-11-15T17:19:31;6.30;99.90
24802;DHT22;12898;50.520;12.152;2022-11-15T17:22:00;6.30;99.90
24802;DHT22;12898;50.520;12.152;2022-11-15T17:24:29;6.30;99.90
24802;DHT22;12898;50.520;12.152;2022-11-15T17:27:03;6.30;99.90
24802;DHT22;12898;50.520;12.152;2022-11-15T17:29:29;6.40;99.90
24802;DHT22;12898;50.520;12.152;2022-11-15T17:31:55;6.40;99.90
24802;DHT22;12898;50.520;12.152;2022-11-15T17:34:21;6.50;99.90
24802;DHT22;12898;50.520;12.152;2022-11-15T17:36:48;6.50;99.90
24802;DHT22;12898;50.520;12.152;2022-11-15T17:39:14;6.50;99.90
24802;DHT22;12898;50.520;12.152;2022-11-15T17:41:39;6.50;99.90
24802;DHT22;12898;50.520;12.152;2022-11-15T17:44:05;6.40;99.90
24802;DHT22;12898;50.520;12.152;2022-11-15T17:46:35;6.40;99.90
24802;DHT22;12898;50.520;12.152;2022-11-15T17:49:01;6.40;99.90
24802;DHT22;12898;50.520;12.152;2022-11-15T17:51:27;6.50;99.90
24802;DHT22;12898;50.520;12.152;2022-11-15T17:53:54;6.60;99.90
24802;DHT22;12898;50.520;12.152;2022-11-15T17:56:24;6.70;99.90
24802;DHT22;12898;50.520;12.152;2022-11-15T17:58:58;6.70;99.90
24802;DHT22;12898;50.520;12.152;2022-11-15T18:01:35;6.90;99.90
24802;DHT22;12898;50.520;12.152;2022-11-15T18:04:03;7.00;99.90
24802;DHT22;12898;50.520;12.152;2022-11-15T18:06:39;6.90;99.90